Alpine Haven, Vermont
Current Conditions -  °F | °C
As of 4:55 AM on Thursday 23 Oct 2014 (Local Time) from KEFK Reporting Station
Overcast Overcast  
Wind Chill: 36°   Ceiling: 1700
Heat Index: 43°   Visibility: 10mi
Dew Point: 37°   Wind: 14mph
Humidity: 80%   Direction: 360°N
Pressure: 30.02"   Gusts: 21mph
Location:  44.8557°N, 72.6016°W
Report Text: KEFK 230855Z AUTO 36012G18KT 10SM BKN017 OVC024 06/03 A3002 RMK AO2 T00610029
Loading
Personal Weather Stations






























Interactive Weather Map
Tropical Storm Tracking
New forecast layout! Learn more

10-Day Weather Forecast

Advertisements
Track Severe Weather on mobile